createdAt,value
2018-04-02T00:02:22.277Z,3.20
2018-04-02T00:04:56.989Z,3.20
2018-04-02T00:07:31.626Z,2.83
2018-04-02T00:10:06.474Z,3.07
2018-04-02T00:12:40.989Z,3.30
2018-04-02T00:15:15.699Z,2.73
2018-04-02T00:17:50.330Z,3.30
2018-04-02T00:20:24.752Z,3.50
2018-04-02T00:22:59.369Z,2.97
2018-04-02T00:25:33.938Z,3.10
2018-04-02T00:28:08.559Z,3.00
2018-04-02T00:30:43.195Z,3.33
2018-04-02T00:33:17.778Z,3.40
2018-04-02T00:35:52.398Z,3.50
2018-04-02T00:38:27.116Z,3.20
2018-04-02T00:41:01.861Z,3.07
2018-04-02T00:43:36.278Z,3.20
2018-04-02T00:46:10.860Z,2.97
2018-04-02T00:48:45.499Z,2.73
2018-04-02T00:51:19.916Z,3.27
2018-04-02T00:53:55.010Z,3.40
2018-04-02T00:56:29.488Z,3.40
2018-04-02T00:59:04.115Z,3.50
2018-04-02T01:01:38.754Z,3.30
2018-04-02T01:04:13.363Z,3.00
2018-04-02T01:06:48.819Z,2.60
2018-04-02T01:09:23.536Z,3.13
2018-04-02T01:11:58.168Z,3.27
2018-04-02T01:14:32.796Z,3.10
2018-04-02T01:17:07.696Z,3.30
2018-04-02T01:19:42.453Z,3.00
2018-04-02T01:22:16.981Z,3.27
2018-04-02T01:24:51.707Z,3.40
2018-04-02T01:27:26.243Z,3.67
2018-04-02T01:30:00.879Z,3.77
2018-04-02T01:32:35.606Z,3.60
2018-04-02T01:35:10.032Z,3.10
2018-04-02T01:37:44.629Z,3.47
2018-04-02T01:40:19.141Z,4.00
2018-04-02T01:42:53.742Z,3.50
2018-04-02T01:45:29.115Z,3.43
2018-04-02T01:48:03.828Z,3.70
2018-04-02T01:50:39.320Z,3.00
2018-04-02T01:53:14.009Z,3.50
2018-04-02T01:55:48.538Z,3.10
2018-04-02T01:58:23.118Z,3.10
2018-04-02T02:00:58.125Z,3.70
2018-04-02T02:03:33.488Z,3.00
2018-04-02T02:06:08.780Z,3.40
2018-04-02T02:08:43.491Z,3.50
2018-04-02T02:11:18.027Z,3.60
2018-04-02T02:13:52.498Z,3.30
2018-04-02T02:16:27.059Z,3.47
2018-04-02T02:19:01.804Z,3.17
2018-04-02T02:21:36.524Z,3.17
2018-04-02T02:24:11.857Z,3.00
2018-04-02T02:26:47.129Z,3.57
2018-04-02T02:29:21.836Z,3.60
2018-04-02T02:31:57.071Z,3.37
2018-04-02T02:34:31.594Z,3.07
2018-04-02T02:37:06.261Z,3.40
2018-04-02T02:39:40.903Z,3.20
2018-04-02T02:42:15.685Z,3.20
2018-04-02T02:44:50.929Z,3.27
2018-04-02T02:47:25.534Z,3.20
2018-04-02T02:50:00.266Z,3.50
2018-04-02T02:52:34.906Z,3.30
2018-04-02T02:55:09.735Z,4.23
2018-04-02T02:57:45.152Z,3.50
2018-04-02T03:00:19.803Z,3.40
2018-04-02T03:02:54.325Z,3.20
2018-04-02T03:05:28.837Z,3.10
2018-04-02T03:08:03.345Z,3.70
2018-04-02T03:10:38.081Z,3.60
2018-04-02T03:13:12.813Z,4.13
2018-04-02T03:15:47.291Z,3.17
2018-04-02T03:18:21.958Z,3.90
2018-04-02T03:20:56.474Z,3.57
2018-04-02T03:23:31.175Z,3.60
2018-04-02T03:26:05.941Z,3.87
2018-04-02T03:28:40.654Z,4.10
2018-04-02T03:31:15.213Z,3.80
2018-04-02T03:33:49.810Z,3.33
2018-04-02T03:36:24.326Z,4.20
2018-04-02T03:38:59.195Z,3.80
2018-04-02T03:41:33.737Z,3.70
2018-04-02T03:44:08.408Z,3.77
2018-04-02T03:46:43.022Z,3.23
2018-04-02T03:49:17.686Z,4.07
2018-04-02T03:51:52.175Z,3.97
2018-04-02T03:54:26.685Z,3.47
2018-04-02T03:57:01.532Z,3.70
2018-04-02T03:59:36.057Z,3.87
2018-04-02T04:02:10.618Z,3.17
2018-04-02T04:04:45.305Z,3.87
2018-04-02T04:07:19.987Z,3.60
2018-04-02T04:09:54.656Z,3.70
2018-04-02T04:12:29.523Z,3.87
2018-04-02T04:15:04.040Z,3.77
2018-04-02T04:17:39.456Z,3.30
2018-04-02T04:20:14.082Z,3.70
2018-04-02T04:22:48.704Z,3.50
2018-04-02T04:25:23.297Z,3.80
2018-04-02T04:27:57.957Z,3.63
2018-04-02T04:30:32.815Z,3.50
2018-04-02T04:33:07.239Z,3.80
2018-04-02T04:35:42.582Z,4.10
2018-04-02T04:38:17.513Z,4.43
2018-04-02T04:40:52.012Z,3.70
2018-04-02T04:43:27.353Z,3.80
2018-04-02T04:46:02.007Z,3.77
2018-04-02T04:48:36.534Z,3.77
2018-04-02T04:51:11.013Z,4.07
2018-04-02T04:53:45.637Z,3.50
2018-04-02T04:56:20.293Z,4.27
2018-04-02T04:58:55.663Z,3.63
2018-04-02T05:01:30.277Z,4.07
2018-04-02T05:04:04.870Z,3.33
2018-04-02T05:06:39.474Z,3.27
2018-04-02T05:09:14.089Z,3.40
2018-04-02T05:11:48.937Z,3.50
2018-04-02T05:14:23.798Z,3.83
2018-04-02T05:16:58.380Z,3.43
2018-04-02T05:19:33.111Z,3.97
2018-04-02T05:22:07.693Z,3.67
2018-04-02T05:24:42.393Z,3.63
2018-04-02T05:27:17.055Z,3.37
2018-04-02T05:29:51.727Z,3.93
2018-04-02T05:32:26.406Z,4.10
2018-04-02T05:35:01.932Z,4.10
2018-04-02T05:37:36.410Z,3.67
2018-04-02T05:40:11.031Z,3.70
2018-04-02T05:42:45.629Z,4.07
2018-04-02T05:45:20.455Z,4.20
2018-04-02T05:47:55.054Z,3.10
2018-04-02T05:50:29.738Z,3.23
2018-04-02T05:53:04.369Z,3.53
2018-04-02T05:55:38.985Z,3.90
2018-04-02T05:58:13.516Z,3.60
2018-04-02T06:00:48.135Z,3.23
2018-04-02T06:03:22.865Z,3.60
2018-04-02T06:05:57.497Z,3.97
2018-04-02T06:08:32.132Z,3.33
2018-04-02T06:11:06.569Z,3.80
2018-04-02T06:13:41.160Z,3.47
2018-04-02T06:16:15.683Z,3.80
2018-04-02T06:18:50.547Z,3.77
2018-04-02T06:21:24.972Z,3.63
2018-04-02T06:23:59.681Z,3.50
2018-04-02T06:26:34.393Z,3.77
2018-04-02T06:29:09.008Z,4.00
2018-04-02T06:31:43.737Z,3.40
2018-04-02T06:34:19.834Z,3.70
2018-04-02T06:36:54.618Z,3.20
2018-04-02T06:39:29.157Z,3.53
2018-04-02T06:42:03.833Z,3.63
2018-04-02T06:44:38.286Z,3.67
2018-04-02T06:47:13.068Z,3.90
2018-04-02T06:49:47.753Z,3.20
2018-04-02T06:52:22.481Z,3.43
2018-04-02T06:54:57.004Z,3.37
2018-04-02T06:57:31.500Z,3.70
2018-04-02T07:00:06.175Z,3.43
2018-04-02T07:02:40.817Z,3.23
2018-04-02T07:05:15.460Z,3.57
2018-04-02T07:07:50.139Z,3.63
2018-04-02T07:10:25.469Z,3.70
2018-04-02T07:13:00.200Z,3.97
2018-04-02T07:15:34.824Z,3.63
2018-04-02T07:18:09.553Z,3.90
2018-04-02T07:20:44.314Z,4.17
2018-04-02T07:23:18.739Z,3.90
2018-04-02T07:25:53.411Z,3.50
2018-04-02T07:28:28.041Z,3.60
2018-04-02T07:31:02.452Z,3.70
2018-04-02T07:33:37.166Z,3.50
2018-04-02T07:36:11.611Z,3.63
2018-04-02T07:38:46.237Z,3.57
2018-04-02T07:41:21.484Z,3.77
2018-04-02T07:43:56.095Z,3.57
2018-04-02T07:46:30.722Z,3.60
2018-04-02T07:49:05.392Z,4.13
2018-04-02T07:51:40.190Z,3.60
2018-04-02T07:54:14.748Z,3.50
2018-04-02T07:56:49.356Z,3.70
2018-04-02T07:59:24.068Z,4.03
2018-04-02T08:01:58.716Z,3.20
2018-04-02T08:04:33.310Z,3.33
2018-04-02T08:07:08.111Z,3.93
2018-04-02T08:09:42.766Z,3.40
2018-04-02T08:12:17.200Z,4.13
2018-04-02T08:14:51.695Z,3.67
2018-04-02T08:17:27.006Z,3.30
2018-04-02T08:20:01.603Z,3.63
2018-04-02T08:22:37.020Z,3.93
2018-04-02T08:25:11.784Z,3.70
2018-04-02T08:27:46.364Z,4.10
2018-04-02T08:30:20.874Z,3.53
2018-04-02T08:32:55.476Z,3.80
2018-04-02T08:35:30.156Z,3.00
2018-04-02T08:38:04.857Z,4.00
2018-04-02T08:40:39.731Z,3.70
2018-04-02T08:43:14.317Z,3.43
2018-04-02T08:45:48.826Z,3.23
2018-04-02T08:48:23.564Z,3.60
2018-04-02T08:50:58.259Z,3.37
2018-04-02T08:53:32.779Z,3.93
2018-04-02T08:56:07.432Z,3.50
2018-04-02T08:58:41.943Z,3.07
2018-04-02T09:01:16.473Z,3.63
2018-04-02T09:03:51.123Z,3.50
2018-04-02T09:06:25.816Z,3.53
2018-04-02T09:09:00.504Z,4.13
2018-04-02T09:11:35.201Z,3.60
2018-04-02T09:14:09.816Z,3.17
2018-04-02T09:16:44.683Z,3.63
2018-04-02T09:19:20.048Z,3.80
2018-04-02T09:21:54.617Z,3.53
2018-04-02T09:24:29.258Z,3.10
2018-04-02T09:27:03.872Z,3.17
2018-04-02T09:29:38.652Z,3.50
2018-04-02T09:32:14.036Z,3.40
2018-04-02T09:34:48.778Z,3.73
2018-04-02T09:37:23.435Z,3.23
2018-04-02T09:39:58.021Z,3.57
2018-04-02T09:42:33.361Z,3.27
2018-04-02T09:45:08.326Z,3.50
2018-04-02T09:47:43.171Z,4.13
2018-04-02T09:50:17.730Z,3.13
2018-04-02T09:52:52.413Z,3.30
2018-04-02T09:55:27.723Z,3.30
2018-04-02T09:58:02.424Z,2.97
2018-04-02T10:00:37.099Z,3.60
2018-04-02T10:03:12.234Z,3.00
2018-04-02T10:05:46.880Z,3.37
2018-04-02T10:08:21.596Z,3.60
2018-04-02T10:10:56.285Z,3.20
2018-04-02T10:13:31.002Z,3.57
2018-04-02T10:16:05.768Z,3.30
2018-04-02T10:18:40.262Z,3.10
2018-04-02T10:21:14.787Z,3.20
2018-04-02T10:23:49.551Z,3.20
2018-04-02T10:26:24.574Z,3.17
2018-04-02T10:28:59.065Z,3.80
2018-04-02T10:31:34.310Z,2.73
2018-04-02T10:34:09.065Z,2.90
2018-04-02T10:36:43.785Z,3.20
2018-04-02T10:39:18.383Z,3.60
2018-04-02T10:41:53.006Z,3.00
2018-04-02T10:44:27.680Z,3.10
2018-04-02T10:47:02.310Z,2.90
2018-04-02T10:49:37.551Z,3.20
2018-04-02T10:52:12.224Z,2.70
2018-04-02T10:54:46.849Z,3.03
2018-04-02T10:57:21.472Z,3.13
2018-04-02T10:59:56.194Z,3.07
2018-04-02T11:02:30.824Z,3.60
2018-04-02T11:05:05.229Z,3.00
2018-04-02T11:07:39.931Z,3.20
2018-04-02T11:10:14.610Z,3.20
2018-04-02T11:12:49.319Z,3.30
2018-04-02T11:15:24.762Z,2.90
2018-04-02T11:17:59.381Z,3.00
2018-04-02T11:20:34.243Z,2.80
2018-04-02T11:23:08.836Z,2.50
2018-04-02T11:25:43.666Z,3.17
2018-04-02T11:28:18.340Z,2.73
2018-04-02T11:30:52.994Z,3.10
2018-04-02T11:33:27.528Z,2.80
2018-04-02T11:36:02.242Z,3.00
2018-04-02T11:38:37.509Z,2.83
2018-04-02T11:41:12.406Z,2.77
2018-04-02T11:43:47.047Z,3.07
2018-04-02T11:46:21.876Z,3.30
2018-04-02T11:48:56.631Z,2.87
2018-04-02T11:51:31.368Z,2.70
2018-04-02T11:54:06.039Z,2.73
2018-04-02T11:56:40.722Z,2.70
2018-04-02T11:59:15.397Z,2.67
2018-04-02T12:01:50.154Z,2.90
2018-04-02T12:04:24.685Z,2.67
2018-04-02T12:06:59.421Z,2.40
2018-04-02T12:09:34.096Z,2.97
2018-04-02T12:12:08.790Z,3.47
2018-04-02T12:14:43.455Z,2.83
2018-04-02T12:17:17.898Z,2.60
2018-04-02T12:19:52.633Z,2.73
2018-04-02T12:22:27.473Z,2.90
2018-04-02T12:25:02.935Z,2.80
2018-04-02T12:27:37.577Z,2.30
2018-04-02T12:30:12.269Z,2.40
2018-04-02T12:32:46.712Z,3.13
2018-04-02T12:35:21.420Z,2.60
2018-04-02T12:37:55.828Z,2.67
2018-04-02T12:40:30.560Z,2.50
2018-04-02T12:43:05.049Z,2.83
2018-04-02T12:45:39.712Z,2.90
2018-04-02T12:48:14.373Z,2.50
2018-04-02T12:50:48.979Z,2.37
2018-04-02T12:53:23.504Z,2.63
2018-04-02T12:55:58.408Z,3.03
2018-04-02T12:58:33.099Z,2.43
2018-04-02T13:01:07.734Z,2.60
2018-04-02T13:03:42.444Z,2.30
2018-04-02T13:06:17.017Z,2.43
2018-04-02T13:08:51.604Z,2.70
2018-04-02T13:11:26.168Z,2.73
2018-04-02T13:14:00.793Z,2.50
2018-04-02T13:16:35.421Z,2.30
2018-04-02T13:19:10.043Z,3.03
2018-04-02T13:21:45.010Z,2.40
2018-04-02T13:24:20.464Z,2.50
2018-04-02T13:26:55.143Z,2.57
2018-04-02T13:29:29.761Z,2.20
2018-04-02T13:32:04.536Z,2.30
2018-04-02T13:34:39.025Z,2.67
2018-04-02T13:37:14.091Z,2.60
2018-04-02T13:39:48.673Z,2.37
2018-04-02T13:42:23.296Z,2.43
2018-04-02T13:44:57.830Z,2.50
2018-04-02T13:47:32.548Z,2.63
2018-04-02T13:50:07.225Z,2.50
2018-04-02T13:52:41.906Z,2.00
2018-04-02T13:55:16.551Z,1.97
2018-04-02T13:57:51.261Z,2.40
2018-04-02T14:00:25.895Z,2.70
2018-04-02T14:03:00.749Z,2.23
2018-04-02T14:05:35.291Z,2.00
2018-04-02T14:08:10.293Z,2.03
2018-04-02T14:10:44.854Z,2.00
2018-04-02T14:13:19.517Z,2.60
2018-04-02T14:15:54.064Z,1.90
2018-04-02T14:18:28.769Z,2.07
2018-04-02T14:21:03.437Z,2.43
2018-04-02T14:23:38.082Z,2.00
2018-04-02T14:26:12.637Z,2.43
2018-04-02T14:28:47.260Z,2.70
2018-04-02T14:31:22.149Z,2.57
2018-04-02T14:33:56.930Z,2.33
2018-04-02T14:36:31.453Z,2.30
2018-04-02T14:39:06.862Z,2.10
2018-04-02T14:41:41.416Z,2.10
2018-04-02T14:44:16.192Z,2.80
2018-04-02T14:46:50.648Z,1.87
2018-04-02T14:49:25.427Z,2.17
2018-04-02T14:51:59.928Z,2.47
2018-04-02T14:54:34.559Z,2.30
2018-04-02T14:57:09.326Z,2.07
2018-04-02T14:59:44.832Z,2.50
2018-04-02T15:02:19.274Z,2.30
2018-04-02T15:04:53.860Z,2.07
2018-04-02T15:07:28.364Z,1.73
2018-04-02T15:10:03.113Z,2.40
2018-04-02T15:12:37.725Z,2.07
2018-04-02T15:15:12.361Z,2.03
2018-04-02T15:17:46.881Z,2.00
2018-04-02T15:20:21.708Z,2.30
2018-04-02T15:22:56.333Z,2.23
2018-04-02T15:25:30.960Z,2.43
2018-04-02T15:28:05.579Z,2.20
2018-04-02T15:30:40.321Z,2.40
2018-04-02T15:33:15.859Z,2.27
2018-04-02T15:35:50.456Z,2.07
2018-04-02T15:38:25.332Z,2.10
2018-04-02T15:40:59.736Z,2.10
2018-04-02T15:43:34.438Z,2.33
2018-04-02T15:46:09.198Z,1.77
2018-04-02T15:48:43.729Z,2.27
2018-04-02T15:51:18.250Z,2.20
2018-04-02T15:53:53.075Z,2.40
2018-04-02T15:56:27.656Z,2.43
2018-04-02T15:59:02.255Z,1.97
2018-04-02T16:01:36.836Z,2.17
2018-04-02T16:04:11.564Z,1.67
2018-04-02T16:06:46.138Z,2.17
2018-04-02T16:09:20.712Z,1.93
2018-04-02T16:11:55.341Z,2.27
2018-04-02T16:14:30.023Z,1.80
2018-04-02T16:17:04.639Z,2.00
2018-04-02T16:19:39.663Z,2.00
2018-04-02T16:22:14.892Z,2.23
2018-04-02T16:24:49.599Z,2.20
2018-04-02T16:27:24.270Z,1.87
2018-04-02T16:29:59.621Z,1.90
2018-04-02T16:32:34.387Z,1.90
2018-04-02T16:35:09.030Z,1.97
2018-04-02T16:37:43.661Z,1.97
2018-04-02T16:40:18.143Z,2.23
2018-04-02T16:42:52.867Z,2.20
2018-04-02T16:45:27.519Z,1.90
2018-04-02T16:48:02.243Z,1.73
2018-04-02T16:50:37.164Z,1.50
2018-04-02T16:53:12.051Z,2.23
2018-04-02T16:55:46.645Z,1.73
2018-04-02T16:58:21.250Z,2.30
2018-04-02T17:00:55.757Z,1.90
2018-04-02T17:03:30.483Z,1.60
2018-04-02T17:06:05.031Z,1.90
2018-04-02T17:08:39.733Z,1.83
2018-04-02T17:11:15.351Z,2.03
2018-04-02T17:13:50.644Z,1.97
2018-04-02T17:16:25.712Z,2.10
2018-04-02T17:19:00.152Z,2.17
2018-04-02T17:21:35.590Z,2.10
2018-04-02T17:24:10.993Z,2.17
2018-04-02T17:26:45.951Z,1.53
2018-04-02T17:29:20.454Z,1.90
2018-04-02T17:31:55.164Z,2.00
2018-04-02T17:34:29.998Z,2.07
2018-04-02T17:37:05.366Z,1.50
2018-04-02T17:39:40.065Z,1.87
2018-04-02T17:42:14.804Z,1.80
2018-04-02T17:44:50.282Z,1.80
2018-04-02T17:47:24.756Z,1.73
2018-04-02T17:49:59.279Z,1.83
2018-04-02T17:52:34.014Z,1.70
2018-04-02T17:55:08.552Z,2.13
2018-04-02T17:57:43.047Z,2.00
2018-04-02T18:00:17.451Z,1.80
2018-04-02T18:02:52.051Z,2.20
2018-04-02T18:05:27.439Z,1.90
2018-04-02T18:08:01.961Z,1.90
2018-04-02T18:10:36.615Z,2.10
2018-04-02T18:13:11.658Z,1.67
2018-04-02T18:15:46.250Z,2.10
2018-04-02T18:18:20.931Z,1.83
2018-04-02T18:20:55.702Z,1.70
2018-04-02T18:23:30.213Z,1.93
2018-04-02T18:26:05.056Z,1.90
2018-04-02T18:28:39.819Z,1.87
2018-04-02T18:31:14.478Z,2.10
2018-04-02T18:33:49.100Z,2.10
2018-04-02T18:36:23.853Z,1.87
2018-04-02T18:38:58.482Z,1.80
2018-04-02T18:41:33.931Z,2.10
2018-04-02T18:44:08.705Z,1.90
2018-04-02T18:46:43.288Z,1.83
2018-04-02T18:49:17.821Z,2.20
2018-04-02T18:51:52.774Z,1.67
2018-04-02T18:54:27.256Z,1.80
2018-04-02T18:57:01.664Z,1.60
2018-04-02T18:59:36.405Z,1.80
2018-04-02T19:02:10.944Z,2.00
2018-04-02T19:04:45.683Z,1.73
2018-04-02T19:07:21.112Z,1.90
2018-04-02T19:09:55.870Z,1.90
2018-04-02T19:12:30.547Z,1.60
2018-04-02T19:15:05.289Z,2.00
2018-04-02T19:17:40.008Z,1.97
2018-04-02T19:20:14.878Z,1.90
2018-04-02T19:22:49.469Z,2.23
2018-04-02T19:25:24.652Z,1.60
2018-04-02T19:28:00.145Z,1.90
2018-04-02T19:30:34.770Z,2.17
2018-04-02T19:33:09.385Z,1.83
2018-04-02T19:35:44.609Z,1.77
2018-04-02T19:38:19.226Z,1.70
2018-04-02T19:40:53.800Z,1.80
2018-04-02T19:43:28.468Z,1.80
2018-04-02T19:46:03.029Z,1.70
2018-04-02T19:48:37.551Z,2.00
2018-04-02T19:51:12.770Z,2.00
2018-04-02T19:53:47.426Z,1.70
2018-04-02T19:56:21.894Z,1.60
2018-04-02T19:58:56.667Z,1.97
2018-04-02T20:01:31.300Z,1.90
2018-04-02T20:04:05.814Z,2.00
2018-04-02T20:06:40.509Z,2.10
2018-04-02T20:09:15.413Z,1.90
2018-04-02T20:11:50.725Z,1.83
2018-04-02T20:14:25.374Z,2.03
2018-04-02T20:16:59.968Z,1.90
2018-04-02T20:19:34.494Z,1.97
2018-04-02T20:22:09.166Z,1.73
2018-04-02T20:24:44.668Z,1.90
2018-04-02T20:27:19.175Z,2.17
2018-04-02T20:29:53.947Z,1.80
2018-04-02T20:32:28.531Z,1.80
2018-04-02T20:35:03.182Z,1.80
2018-04-02T20:37:37.783Z,1.70
2018-04-02T20:40:12.405Z,1.87
2018-04-02T20:42:47.060Z,2.03
2018-04-02T20:45:21.742Z,1.97
2018-04-02T20:47:56.493Z,2.27
2018-04-02T20:50:30.954Z,2.00
2018-04-02T20:53:05.644Z,2.10
2018-04-02T20:55:40.270Z,2.00
2018-04-02T20:58:14.760Z,2.10
2018-04-02T21:00:49.420Z,2.10
2018-04-02T21:03:24.856Z,1.90
2018-04-02T21:05:59.512Z,1.83
2018-04-02T21:08:34.124Z,1.70
2018-04-02T21:11:08.832Z,1.60
2018-04-02T21:13:43.479Z,1.80
2018-04-02T21:16:17.992Z,2.10
2018-04-02T21:18:52.710Z,1.83
2018-04-02T21:21:27.233Z,2.47
2018-04-02T21:24:01.875Z,2.10
2018-04-02T21:26:36.546Z,1.77
2018-04-02T21:29:11.080Z,1.90
2018-04-02T21:31:45.625Z,1.53
2018-04-02T21:34:20.347Z,1.90
2018-04-02T21:36:54.905Z,1.90
2018-04-02T21:39:29.611Z,2.23
2018-04-02T21:42:04.107Z,2.07
2018-04-02T21:44:38.632Z,2.70
2018-04-02T21:47:13.412Z,1.90
2018-04-02T21:49:48.025Z,2.00
2018-04-02T21:52:22.741Z,2.10
2018-04-02T21:54:57.434Z,2.20
2018-04-02T21:57:32.046Z,2.27
2018-04-02T22:00:06.707Z,2.10
2018-04-02T22:02:41.272Z,2.00
2018-04-02T22:05:15.771Z,2.40
2018-04-02T22:07:50.375Z,2.10
2018-04-02T22:10:25.174Z,2.17
2018-04-02T22:12:59.729Z,1.80
2018-04-02T22:15:34.448Z,2.13
2018-04-02T22:18:09.817Z,1.90
2018-04-02T22:20:45.259Z,2.10
2018-04-02T22:23:19.874Z,2.00
2018-04-02T22:25:54.502Z,2.37
2018-04-02T22:28:29.214Z,1.73
2018-04-02T22:31:03.989Z,1.90
2018-04-02T22:33:39.286Z,2.17
2018-04-02T22:36:13.917Z,1.80
2018-04-02T22:38:48.543Z,2.10
2018-04-02T22:41:23.171Z,1.70
2018-04-02T22:43:57.676Z,1.80
2018-04-02T22:46:32.514Z,1.77
2018-04-02T22:49:07.484Z,1.70
2018-04-02T22:51:42.892Z,1.80
2018-04-02T22:54:17.437Z,1.53
2018-04-02T22:56:51.931Z,1.93
2018-04-02T22:59:26.572Z,1.83
2018-04-02T23:02:01.963Z,1.80
2018-04-02T23:04:36.674Z,1.73
2018-04-02T23:07:11.107Z,1.97
2018-04-02T23:09:45.802Z,2.20
2018-04-02T23:12:20.404Z,1.90
2018-04-02T23:14:55.044Z,1.73
2018-04-02T23:17:29.605Z,1.87
2018-04-02T23:20:04.126Z,1.80
2018-04-02T23:22:50.892Z,1.70
2018-04-02T23:25:25.484Z,1.87
2018-04-02T23:28:00.148Z,1.67
2018-04-02T23:30:34.657Z,2.00
2018-04-02T23:33:10.038Z,1.70
2018-04-02T23:35:45.544Z,1.80
2018-04-02T23:38:20.175Z,1.97
2018-04-02T23:40:54.907Z,1.50
2018-04-02T23:43:29.447Z,1.90
2018-04-02T23:46:04.044Z,1.70
2018-04-02T23:48:38.771Z,1.50
2018-04-02T23:51:13.494Z,1.53
2018-04-02T23:53:48.162Z,1.40
2018-04-02T23:56:24.408Z,1.47
2018-04-02T23:58:59.124Z,1.60
